Time;durP1;ratioP1;P1;durP2;ratioP2;P2;SDS_P1;SDS_P2;PMS_P1;PMS_P2;Temp;Humidity;BMP_temperature;BMP_pressure;BME280_temperature;BME280_humidity;BME280_pressure;Samples;Min_cycle;Max_cycle;Signal;HPM_P1;HPM_P2
2023/07/25 00:04:49;;;;;;;5.40;4.30;;;;;;;-144.32;100.00;68061.97;10301588;28;20046;-76
2023/07/25 00:10:09;;;;;;;7.13;4.50;;;;;;;-144.32;100.00;68061.97;10303504;28;20098;-75
2023/07/25 00:15:19;;;;;;;6.75;4.35;;;;;;;-144.32;100.00;68061.97;10327563;28;20038;-76
2023/07/25 00:20:23;;;;;;;6.28;4.50;;;;;;;-144.32;100.00;68061.97;10320944;28;20042;-75
2023/07/25 00:25:24;;;;;;;5.03;4.10;;;;;;;-144.32;100.00;68061.97;10303053;28;20045;-75
2023/07/25 00:30:24;;;;;;;6.38;4.07;;;;;;;-144.32;100.00;68061.97;10308394;28;20141;-76
2023/07/25 00:35:25;;;;;;;5.38;4.03;;;;;;;-144.32;100.00;68061.97;10308607;28;20042;-78
2023/07/25 00:40:27;;;;;;;4.55;3.92;;;;;;;-144.32;100.00;68061.97;10305239;28;20043;-78
2023/07/25 00:45:29;;;;;;;7.60;4.65;;;;;;;-144.32;100.00;68061.97;10288478;28;20046;-77
2023/07/25 00:50:30;;;;;;;6.38;4.10;;;;;;;-144.32;100.00;68061.97;10309885;28;20490;-78
2023/07/25 00:55:31;;;;;;;7.22;4.65;;;;;;;-144.32;100.00;68061.97;10308207;28;20079;-77
2023/07/25 01:00:31;;;;;;;6.40;4.50;;;;;;;-144.32;100.00;68061.97;10289631;28;20039;-79
2023/07/25 01:05:38;;;;;;;6.43;4.82;;;;;;;-144.32;100.00;68061.97;10296666;28;20088;-77
2023/07/25 01:10:39;;;;;;;7.65;5.20;;;;;;;-144.32;100.00;68061.97;10299383;28;20046;-78
2023/07/25 01:15:39;;;;;;;6.68;4.72;;;;;;;-144.32;100.00;68061.97;10302819;28;20841;-78
2023/07/25 01:20:40;;;;;;;5.78;4.43;;;;;;;-144.32;100.00;68061.97;10306544;28;20077;-79
2023/07/25 01:25:41;;;;;;;7.93;5.38;;;;;;;-144.32;100.00;68061.97;10301615;28;20047;-78
2023/07/25 01:30:41;;;;;;;5.95;5.25;;;;;;;-144.32;100.00;68061.97;10318167;28;20047;-78
2023/07/25 01:35:42;;;;;;;6.45;4.57;;;;;;;-144.32;100.00;68061.97;10290706;28;20073;-76
2023/07/25 01:40:42;;;;;;;7.05;4.68;;;;;;;-144.32;100.00;68061.97;10289387;28;20164;-75
2023/07/25 01:45:43;;;;;;;6.78;4.53;;;;;;;-144.32;100.00;68061.97;10304064;28;20046;-77
2023/07/25 01:50:43;;;;;;;8.50;4.75;;;;;;;-144.32;100.00;68061.97;10286304;28;20129;-77
2023/07/25 01:55:44;;;;;;;5.88;3.95;;;;;;;-144.32;100.00;68061.97;10302119;28;20055;-77
2023/07/25 02:00:44;;;;;;;7.38;4.78;;;;;;;-144.32;100.00;68061.97;10300844;28;20050;-75
2023/07/25 02:05:45;;;;;;;6.70;4.63;;;;;;;-144.32;100.00;68061.97;10299351;28;20105;-76
2023/07/25 02:10:45;;;;;;;7.07;4.53;;;;;;;-144.32;100.00;68061.97;10283840;28;20070;-77
2023/07/25 02:15:46;;;;;;;7.32;4.40;;;;;;;-144.32;100.00;68061.97;10302548;28;20046;-76
2023/07/25 02:20:46;;;;;;;6.57;4.78;;;;;;;-144.32;100.00;68061.97;10286434;28;20050;-76
2023/07/25 02:25:47;;;;;;;6.30;5.10;;;;;;;-144.32;100.00;68061.97;10304010;28;20130;-76
2023/07/25 02:30:48;;;;;;;7.22;5.35;;;;;;;-144.32;100.00;68061.97;10302039;28;20382;-76
2023/07/25 02:35:48;;;;;;;7.22;4.95;;;;;;;-144.32;100.00;68061.97;10285608;28;20794;-76
2023/07/25 02:40:49;;;;;;;5.68;4.25;;;;;;;-144.32;100.00;68061.97;10303353;28;20117;-75
2023/07/25 02:45:50;;;;;;;7.13;4.80;;;;;;;-144.32;100.00;68061.97;10301980;28;20558;-76
2023/07/25 02:50:51;;;;;;;5.28;3.95;;;;;;;-144.32;100.00;68061.97;10299555;28;20057;-78
2023/07/25 02:55:53;;;;;;;6.20;4.63;;;;;;;-144.32;100.00;68061.97;10302902;28;20065;-78
2023/07/25 03:00:54;;;;;;;5.32;4.78;;;;;;;-144.32;100.00;68061.97;10300220;28;20080;-76
2023/07/25 03:05:54;;;;;;;5.70;4.57;;;;;;;-144.32;100.00;68061.97;10279338;28;20049;-76
2023/07/25 03:10:55;;;;;;;4.63;4.07;;;;;;;-144.32;100.00;68061.97;10301202;28;20057;-76
2023/07/25 03:15:56;;;;;;;6.75;4.45;;;;;;;-144.32;100.00;68061.97;10298730;28;20411;-77
2023/07/25 03:20:57;;;;;;;5.72;4.30;;;;;;;-144.32;100.00;68061.97;10300523;28;20736;-76
2023/07/25 03:25:57;;;;;;;6.38;4.50;;;;;;;-144.32;100.00;68061.97;10302821;28;20109;-76
2023/07/25 03:30:58;;;;;;;4.82;3.83;;;;;;;-144.32;100.00;68061.97;10285982;28;20770;-76
2023/07/25 03:35:58;;;;;;;4.90;3.90;;;;;;;-144.32;100.00;68061.97;10302965;28;20054;-77
2023/07/25 03:41:01;;;;;;;6.30;4.32;;;;;;;-144.32;100.00;68061.97;10304610;28;20046;-77
2023/07/25 03:46:08;;;;;;;7.47;5.20;;;;;;;-144.32;100.00;68061.97;10307141;28;20109;-77
2023/07/25 03:51:10;;;;;;;5.53;4.15;;;;;;;-144.32;100.00;68061.97;10315446;28;20042;-75
2023/07/25 03:56:15;;;;;;;5.15;4.50;;;;;;;-144.32;100.00;68061.97;10318237;28;20035;-76
2023/07/25 04:01:19;;;;;;;6.65;4.97;;;;;;;-144.32;100.00;68061.97;10295914;28;20112;-76
2023/07/25 04:06:22;;;;;;;7.78;5.07;;;;;;;-144.32;100.00;68061.97;10290689;28;20055;-76
2023/07/25 04:11:23;;;;;;;4.82;4.15;;;;;;;-144.32;100.00;68061.97;10300039;28;20701;-76
2023/07/25 04:16:23;;;;;;;5.70;4.47;;;;;;;-144.32;100.00;68061.97;10301666;28;20128;-77
2023/07/25 04:21:27;;;;;;;7.53;5.22;;;;;;;-144.32;100.00;68061.97;10304714;28;20426;-77
2023/07/25 04:26:34;;;;;;;6.07;4.85;;;;;;;-144.32;100.00;68061.97;10298276;28;20063;-76
2023/07/25 04:31:39;;;;;;;6.80;4.70;;;;;;;-144.32;100.00;68061.97;10283323;28;20105;-76
2023/07/25 04:36:52;;;;;;;10.63;5.22;;;;;;;-144.32;100.00;68061.97;10285105;28;20042;-75
2023/07/25 04:42:03;;;;;;;7.35;4.90;;;;;;;-144.32;100.00;68061.97;10306070;28;20038;-76
2023/07/25 04:47:09;;;;;;;6.45;5.20;;;;;;;-144.32;100.00;68061.97;10286470;28;20096;-74
2023/07/25 04:52:22;;;;;;;5.88;4.80;;;;;;;-144.32;100.00;68061.97;10297609;28;20156;-73
2023/07/25 04:57:25;;;;;;;7.18;5.50;;;;;;;-144.32;100.00;68061.97;10298318;28;20050;-74
2023/07/25 05:02:32;;;;;;;6.93;5.60;;;;;;;-144.32;100.00;68061.97;10282057;28;20051;-76
2023/07/25 05:07:42;;;;;;;7.10;5.20;;;;;;;-144.32;100.00;68061.97;10303226;28;20669;-76
2023/07/25 05:12:53;;;;;;;6.80;5.25;;;;;;;-144.32;100.00;68061.97;10303559;28;20577;-76
2023/07/25 05:18:03;;;;;;;6.25;5.03;;;;;;;-144.32;100.00;68061.97;10306821;28;20070;-75
2023/07/25 05:23:20;;;;;;;11.52;5.40;;;;;;;-144.32;100.00;68061.97;10308186;28;20038;-73
2023/07/25 05:28:24;;;;;;;6.50;5.00;;;;;;;-144.32;100.00;68061.97;10311285;28;20050;-75
2023/07/25 05:33:40;;;;;;;8.05;4.72;;;;;;;-144.32;100.00;68061.97;10307045;28;20080;-76
2023/07/25 05:38:57;;;;;;;6.70;4.97;;;;;;;-144.32;100.00;68061.97;10308219;28;20137;-75
2023/07/25 05:44:05;;;;;;;8.85;5.65;;;;;;;-144.32;100.00;68061.97;10328329;28;20050;-77
2023/07/25 05:49:14;;;;;;;8.10;5.22;;;;;;;-144.32;100.00;68061.97;10320247;28;20042;-81
2023/07/25 05:54:19;;;;;;;6.88;4.57;;;;;;;-144.32;100.00;68061.97;10304782;28;20402;-75
2023/07/25 05:59:31;;;;;;;6.13;4.88;;;;;;;-144.32;100.00;68061.97;10301613;28;20093;-72
2023/07/25 06:04:54;;;;;;;8.50;5.82;;;;;;;-144.32;100.00;68061.97;10302771;28;20050;-77
2023/07/25 06:10:18;;;;;;;7.35;5.50;;;;;;;-144.32;100.00;68061.97;10300380;28;20066;-76
2023/07/25 06:15:55;;;;;;;6.95;4.88;;;;;;;-144.32;100.00;68061.97;10305781;28;20046;-77
2023/07/25 06:21:19;;;;;;;4.55;3.30;;;;;;;-144.32;100.00;68061.97;10306440;28;20046;-78
2023/07/25 06:26:47;;;;;;;;;;;;;;;-144.32;100.00;68061.97;10311109;28;20044;-77
2023/07/25 06:32:11;;;;;;;5.95;3.08;;;;;;;-144.32;100.00;68061.97;10307338;28;19957;-76
2023/07/25 06:37:23;;;;;;;;;;;;;;;-144.32;100.00;68061.97;10306572;28;20050;-75
2023/07/25 06:42:29;;;;;;;5.07;3.50;;;;;;;-144.32;100.00;68061.97;10271949;28;19964;-76
2023/07/25 06:47:42;;;;;;;5.13;3.72;;;;;;;-144.32;100.00;68061.97;10285539;28;20134;-76
2023/07/25 06:52:54;;;;;;;6.43;4.75;;;;;;;-144.32;100.00;68061.97;10310666;28;20458;-75
2023/07/25 06:58:04;;;;;;;5.93;3.87;;;;;;;-144.32;100.00;68061.97;10298349;28;20103;-75
2023/07/25 07:03:13;;;;;;;6.43;4.10;;;;;;;-144.32;100.00;68061.97;10297621;28;20092;-75
2023/07/25 07:08:19;;;;;;;7.00;4.38;;;;;;;-144.32;100.00;68061.97;10302332;28;20101;-76
2023/07/25 07:13:23;;;;;;;6.90;4.05;;;;;;;-144.32;100.00;68061.97;10300778;28;20486;-75
2023/07/25 07:18:25;;;;;;;5.38;4.40;;;;;;;-144.32;100.00;68061.97;10285463;28;20129;-76
2023/07/25 07:23:29;;;;;;;9.93;4.75;;;;;;;-144.32;100.00;68061.97;10306694;28;20461;-76
2023/07/25 07:28:39;;;;;;;8.95;4.93;;;;;;;-144.32;100.00;68061.97;10301330;28;20053;-76
2023/07/25 07:34:10;;;;;;;6.63;4.45;;;;;;;-144.32;100.00;68061.97;10303321;28;20050;-75
2023/07/25 07:39:23;;;;;;;7.47;6.03;;;;;;;-144.32;100.00;68061.97;10303847;28;20047;-77
2023/07/25 07:44:48;;;;;;;5.97;4.45;;;;;;;-144.32;100.00;68061.97;10297643;28;20145;-75
2023/07/25 07:49:59;;;;;;;4.43;3.05;;;;;;;-144.32;100.00;68061.97;10300396;28;20049;-77
2023/07/25 07:55:22;;;;;;;6.60;3.40;;;;;;;-144.32;100.00;68061.97;10293913;28;20391;-76
2023/07/25 08:00:28;;;;;;;4.13;2.88;;;;;;;-144.32;100.00;68061.97;10295950;28;20047;-76
2023/07/25 08:05:39;;;;;;;6.28;4.45;;;;;;;-144.32;100.00;68061.97;10299453;28;20787;-75
2023/07/25 08:10:42;;;;;;;11.20;5.63;;;;;;;-144.32;100.00;68061.97;10299470;28;20526;-74
2023/07/25 08:15:49;;;;;;;;;;;;;;;-144.32;100.00;68061.97;10311547;28;20046;-75
2023/07/25 08:21:04;;;;;;;8.38;5.82;;;;;;;-144.32;100.00;68061.97;10309537;28;19925;-76
2023/07/25 08:26:10;;;;;;;7.55;6.28;;;;;;;-144.32;100.00;68061.97;10323860;28;20049;-75
2023/07/25 08:31:19;;;;;;;7.13;5.38;;;;;;;-144.32;100.00;68061.97;10288805;28;20049;-76
2023/07/25 08:36:22;;;;;;;8.85;6.03;;;;;;;-144.32;100.00;68061.97;10306902;28;20057;-76
2023/07/25 08:41:29;;;;;;;8.23;5.90;;;;;;;-144.32;100.00;68061.97;10287638;28;20050;-77
2023/07/25 08:46:38;;;;;;;12.05;5.68;;;;;;;-144.32;100.00;68061.97;10304062;28;20097;-75
2023/07/25 08:51:51;;;;;;;7.47;5.03;;;;;;;-144.32;100.00;68061.97;10302269;28;20042;-76
2023/07/25 08:57:04;;;;;;;9.15;5.60;;;;;;;-144.32;100.00;68061.97;10290757;28;20050;-76
2023/07/25 09:02:10;;;;;;;6.90;5.28;;;;;;;-144.32;100.00;68061.97;10305205;28;20046;-75
2023/07/25 09:07:23;;;;;;;7.78;5.40;;;;;;;-144.32;100.00;68061.97;10305930;28;20050;-75
2023/07/25 09:12:39;;;;;;;8.63;5.07;;;;;;;-144.32;100.00;68061.97;10304896;28;20066;-75
2023/07/25 09:17:44;;;;;;;8.32;5.00;;;;;;;-144.32;100.00;68061.97;10304820;28;20308;-77
2023/07/25 09:22:52;;;;;;;6.72;4.88;;;;;;;-144.32;100.00;68061.97;10283389;28;21233;-76
2023/07/25 09:28:06;;;;;;;8.77;5.28;;;;;;;-144.32;100.00;68061.97;10306614;28;20489;-74
2023/07/25 09:33:22;;;;;;;9.55;5.05;;;;;;;-144.32;100.00;68061.97;10306343;28;20066;-74
2023/07/25 09:38:25;;;;;;;5.25;3.80;;;;;;;-144.32;100.00;68061.97;10297253;28;20206;-75
2023/07/25 09:43:29;;;;;;;5.72;4.05;;;;;;;-144.32;100.00;68061.97;10306373;28;20121;-76
2023/07/25 09:48:32;;;;;;;5.85;3.65;;;;;;;-144.32;100.00;68061.97;10297809;28;20038;-76
2023/07/25 09:53:32;;;;;;;4.60;3.60;;;;;;;-144.32;100.00;68061.97;10299400;28;20046;-74
2023/07/25 09:58:33;;;;;;;6.50;4.30;;;;;;;-144.32;100.00;68061.97;10301968;28;20046;-76
2023/07/25 10:03:34;;;;;;;6.03;4.63;;;;;;;-144.32;100.00;68061.97;10304237;28;20146;-75
2023/07/25 10:08:38;;;;;;;4.25;3.40;;;;;;;-144.32;100.00;68061.97;10305368;28;20088;-74
2023/07/25 10:13:43;;;;;;;5.88;3.92;;;;;;;-144.32;100.00;68061.97;10286896;28;20050;-74
2023/07/25 10:18:52;;;;;;;4.75;3.67;;;;;;;-144.32;100.00;68061.97;10304021;28;20073;-75
2023/07/25 10:24:01;;;;;;;3.38;2.83;;;;;;;-144.32;100.00;68061.97;10287944;28;20216;-75
2023/07/25 10:29:34;;;;;;;3.17;2.55;;;;;;;-144.32;100.00;68061.97;10302077;28;20054;-75
2023/07/25 10:35:06;;;;;;;4.18;3.65;;;;;;;-144.32;100.00;68061.97;10300059;28;20049;-74
2023/07/25 10:40:15;;;;;;;5.38;2.60;;;;;;;-144.32;100.00;68061.97;10255850;28;20062;-75
2023/07/25 10:45:28;;;;;;;3.33;2.75;;;;;;;-144.32;100.00;68061.97;10298975;28;20088;-75
2023/07/25 10:50:53;;;;;;;3.67;2.92;;;;;;;-144.32;100.00;68061.97;10301308;28;20481;-75
2023/07/25 10:56:04;;;;;;;4.28;3.10;;;;;;;-144.32;100.00;68061.97;10296451;28;20574;-74
2023/07/25 11:01:29;;;;;;;2.95;2.70;;;;;;;-144.32;100.00;68061.97;10303324;28;20116;-74
2023/07/25 11:06:36;;;;;;;3.65;3.13;;;;;;;-144.32;100.00;68061.97;10300312;28;20035;-75
2023/07/25 11:11:58;;;;;;;4.15;2.90;;;;;;;-144.32;100.00;68061.97;10301272;28;20070;-73
2023/07/25 11:17:10;;;;;;;4.53;2.83;;;;;;;-144.32;100.00;68061.97;10303236;28;20081;-73
2023/07/25 11:22:23;;;;;;;4.00;2.90;;;;;;;-144.32;100.00;68061.97;10302019;28;20656;-72
2023/07/25 11:27:31;;;;;;;4.18;2.63;;;;;;;-144.32;100.00;68061.97;10295510;28;20100;-72
2023/07/25 11:32:37;;;;;;;3.40;2.83;;;;;;;-144.32;100.00;68061.97;10298891;28;20044;-73
2023/07/25 11:37:45;;;;;;;3.63;2.75;;;;;;;-144.32;100.00;68061.97;10300093;28;20053;-73
2023/07/25 11:42:56;;;;;;;5.03;2.85;;;;;;;-144.32;100.00;68061.97;10280368;28;20046;-74
2023/07/25 11:48:08;;;;;;;2.92;2.63;;;;;;;-144.32;100.00;68061.97;10271436;28;20426;-76
2023/07/25 11:53:20;;;;;;;3.63;2.22;;;;;;;-144.32;100.00;68061.97;10304321;28;22663;-74
2023/07/25 11:58:24;;;;;;;4.00;2.67;;;;;;;-144.32;100.00;68061.97;10306064;28;20528;-74
2023/07/25 12:03:34;;;;;;;3.33;2.83;;;;;;;-144.32;100.00;68061.97;10310681;28;20048;-74
2023/07/25 12:08:48;;;;;;;5.90;3.00;;;;;;;-144.32;100.00;68061.97;10307779;28;20046;-76
2023/07/25 12:14:00;;;;;;;3.55;2.80;;;;;;;-144.32;100.00;68061.97;10290839;28;20042;-75
2023/07/25 12:19:12;;;;;;;4.55;2.72;;;;;;;-144.32;100.00;68061.97;10300972;28;20145;-80
2023/07/25 12:24:19;;;;;;;4.00;2.97;;;;;;;-144.32;100.00;68061.97;10309627;28;20038;-77
2023/07/25 12:29:27;;;;;;;3.80;3.15;;;;;;;-144.32;100.00;68061.97;10308284;28;20160;-74
2023/07/25 12:34:36;;;;;;;4.63;3.20;;;;;;;-144.32;100.00;68061.97;10302236;28;20074;-75
2023/07/25 12:39:39;;;;;;;3.83;2.95;;;;;;;-144.32;100.00;68061.97;10308092;28;20450;-76
2023/07/25 12:44:58;;;;;;;3.50;2.40;;;;;;;-144.32;100.00;68061.97;10285893;28;20050;-76
2023/07/25 12:50:10;;;;;;;4.28;2.75;;;;;;;-144.32;100.00;68061.97;10304474;28;20598;-75
2023/07/25 12:55:14;;;;;;;3.67;2.92;;;;;;;-144.32;100.00;68061.97;10306674;28;20042;-76
2023/07/25 13:00:24;;;;;;;3.28;2.78;;;;;;;-144.32;100.00;68061.97;10291278;28;20081;-75
2023/07/25 13:06:14;;;;;;;4.25;2.50;;;;;;;-144.32;100.00;68061.97;10309216;28;20097;-76
2023/07/25 13:12:05;;;;;;;4.75;2.67;;;;;;;-144.32;100.00;68061.97;10307118;28;20063;-77
2023/07/25 13:17:39;;;;;;;3.20;2.00;;;;;;;-144.32;100.00;68061.97;10306228;28;20359;-80
2023/07/25 13:23:15;;;;;;;1.73;1.63;;;;;;;-144.32;100.00;68061.97;10302357;28;20078;-77
2023/07/25 13:29:10;;;;;;;2.70;1.40;;;;;;;-144.32;100.00;68061.97;10303638;28;20047;-77
2023/07/25 13:35:08;;;;;;;2.60;1.75;;;;;;;-144.32;100.00;68061.97;10288095;28;20071;-76
2023/07/25 13:40:34;;;;;;;2.75;2.03;;;;;;;-144.32;100.00;68061.97;10300012;28;20046;-75
2023/07/25 13:46:27;;;;;;;2.83;1.70;;;;;;;-144.32;100.00;68061.97;10304512;28;20100;-76
2023/07/25 13:52:21;;;;;;;2.40;1.77;;;;;;;-144.32;100.00;68061.97;10302228;28;20043;-77
2023/07/25 13:57:44;;;;;;;2.92;1.80;;;;;;;-144.32;100.00;68061.97;10290068;28;20138;-76
2023/07/25 14:03:36;;;;;;;2.53;1.50;;;;;;;-144.32;100.00;68061.97;10306108;28;20054;-76
2023/07/25 14:09:34;;;;;;;3.40;1.65;;;;;;;-144.32;100.00;68061.97;10325044;28;20294;-76
2023/07/25 14:15:31;;;;;;;3.38;1.80;;;;;;;-144.32;100.00;68061.97;10327852;28;20419;-77
2023/07/25 14:21:03;;;;;;;2.08;1.67;;;;;;;-144.32;100.00;68061.97;10305101;28;20077;-75
2023/07/25 14:26:38;;;;;;;3.53;1.55;;;;;;;-144.32;100.00;68061.97;10287065;28;20080;-81
2023/07/25 14:32:35;;;;;;;2.05;1.55;;;;;;;-144.32;100.00;68061.97;10301617;28;20043;-80
2023/07/25 14:38:34;;;;;;;3.38;2.60;;;;;;;-144.32;100.00;68061.97;10298988;28;20093;-76
2023/07/25 14:44:32;;;;;;;2.03;1.80;;;;;;;-144.32;100.00;68061.97;10302487;28;20054;-78
2023/07/25 14:50:20;;;;;;;1.85;1.60;;;;;;;-144.32;100.00;68061.97;10295823;28;20038;-82
2023/07/25 14:56:05;;;;;;;2.70;2.00;;;;;;;-144.32;100.00;68061.97;10313849;28;20671;-83
2023/07/25 15:01:53;;;;;;;2.38;1.90;;;;;;;-144.32;100.00;68061.97;10302980;28;20046;-76
2023/07/25 15:07:49;;;;;;;1.70;1.45;;;;;;;-144.32;100.00;68061.97;10299005;28;20042;-77
2023/07/25 15:13:38;;;;;;;1.77;0.93;;;;;;;-144.32;100.00;68061.97;10298141;28;20461;-77
2023/07/25 15:19:35;;;;;;;1.20;1.10;;;;;;;-144.32;100.00;68061.97;10298759;28;20555;-77
2023/07/25 15:25:16;;;;;;;1.88;1.50;;;;;;;-144.32;100.00;68061.97;10284715;28;20073;-80
2023/07/25 15:30:33;;;;;;;1.30;0.82;;;;;;;-144.32;100.00;68061.97;10285460;28;20046;-75
2023/07/25 15:35:49;;;;;;;1.25;0.90;;;;;;;-144.32;100.00;68061.97;10299771;28;20144;-76
2023/07/25 15:41:08;;;;;;;0.60;0.60;;;;;;;-144.32;100.00;68061.97;10294026;28;20057;-75
2023/07/25 15:46:40;;;;;;;1.35;0.65;;;;;;;-144.32;100.00;68061.97;10298243;28;20667;-77
2023/07/25 15:52:05;;;;;;;1.08;0.90;;;;;;;-144.32;100.00;68061.97;10292409;28;20633;-74
2023/07/25 15:57:37;;;;;;;1.15;1.05;;;;;;;-144.32;100.00;68061.97;10295722;28;20158;-77
2023/07/25 16:03:06;;;;;;;1.20;1.00;;;;;;;-144.32;100.00;68061.97;10300054;28;20081;-77
2023/07/25 16:08:50;;;;;;;0.70;0.70;;;;;;;-144.32;100.00;68061.97;10304844;28;20046;-77
2023/07/25 16:14:38;;;;;;;1.05;0.90;;;;;;;-144.32;100.00;68061.97;10306518;28;20049;-78
2023/07/25 16:20:29;;;;;;;1.10;0.90;;;;;;;-144.32;100.00;68061.97;10300948;28;20051;-84
2023/07/25 16:26:06;;;;;;;1.60;1.08;;;;;;;-144.32;100.00;68061.97;10316939;28;20042;-81
2023/07/25 16:31:45;;;;;;;2.22;1.05;;;;;;;-144.32;100.00;68061.97;10313114;28;20050;-83
2023/07/25 16:37:30;;;;;;;1.83;1.40;;;;;;;-144.32;100.00;68061.97;10327188;28;20070;-82
2023/07/25 16:43:02;;;;;;;2.22;1.80;;;;;;;-144.32;100.00;68061.97;10315032;28;20042;-81
2023/07/25 16:48:24;;;;;;;1.90;1.70;;;;;;;-144.32;100.00;68061.97;10290480;28;20066;-81
2023/07/25 16:53:58;;;;;;;2.03;1.50;;;;;;;-144.32;100.00;68061.97;10310740;28;20049;-78
2023/07/25 16:59:28;;;;;;;1.67;1.58;;;;;;;-144.32;100.00;68061.97;10310890;28;20057;-81
2023/07/25 17:05:21;;;;;;;5.28;3.45;;;;;;;-144.32;100.00;68061.97;10314170;28;20825;-82
2023/07/25 17:10:48;;;;;;;2.30;2.10;;;;;;;-144.32;100.00;68061.97;10304829;28;20418;-74
2023/07/25 17:16:23;;;;;;;2.58;2.13;;;;;;;-144.32;100.00;68061.97;10301302;28;20038;-75
2023/07/25 17:21:49;;;;;;;2.47;1.70;;;;;;;-144.32;100.00;68061.97;10300922;28;20129;-75
2023/07/25 17:27:11;;;;;;;2.33;1.80;;;;;;;-144.32;100.00;68061.97;10303750;28;20065;-74
2023/07/25 17:32:56;;;;;;;4.13;2.08;;;;;;;-144.32;100.00;68061.97;10268668;28;20065;-77
2023/07/25 17:38:22;;;;;;;2.63;1.98;;;;;;;-144.32;100.00;68061.97;10288926;28;20042;-77
2023/07/25 17:43:46;;;;;;;2.30;1.90;;;;;;;-144.32;100.00;68061.97;10302479;28;20053;-81
2023/07/25 17:49:00;;;;;;;2.83;2.10;;;;;;;-144.32;100.00;68061.97;10304183;28;21484;-77
2023/07/25 17:54:23;;;;;;;2.53;1.92;;;;;;;-144.32;100.00;68061.97;10301051;28;20745;-79
2023/07/25 17:59:35;;;;;;;2.88;2.13;;;;;;;-144.32;100.00;68061.97;10307262;28;20251;-78
2023/07/25 18:04:48;;;;;;;4.13;2.58;;;;;;;-144.32;100.00;68061.97;10302859;28;20053;-79
2023/07/25 18:10:09;;;;;;;2.13;1.93;;;;;;;-144.32;100.00;68061.97;10307448;28;20102;-78
2023/07/25 18:15:27;;;;;;;2.10;2.00;;;;;;;-144.32;100.00;68061.97;10304361;28;20066;-78
2023/07/25 18:20:55;;;;;;;3.72;2.22;;;;;;;-144.32;100.00;68061.97;10301197;28;20550;-80
2023/07/25 18:26:24;;;;;;;4.50;2.00;;;;;;;-144.32;100.00;68061.97;10297875;28;20058;-76
2023/07/25 18:32:00;;;;;;;3.67;2.15;;;;;;;-144.32;100.00;68061.97;10297971;28;20061;-80
2023/07/25 18:37:30;;;;;;;2.15;1.92;;;;;;;-144.32;100.00;68061.97;10283564;28;20061;-77
2023/07/25 18:42:48;;;;;;;3.97;2.28;;;;;;;-144.32;100.00;68061.97;10299646;28;20051;-78
2023/07/25 18:48:18;;;;;;;3.58;2.85;;;;;;;-144.32;100.00;68061.97;10303905;28;20042;-79
2023/07/25 18:53:54;;;;;;;2.17;2.00;;;;;;;-144.32;100.00;68061.97;10299521;28;20600;-77
2023/07/25 18:59:39;;;;;;;2.78;2.28;;;;;;;-144.32;100.00;68061.97;10300657;28;20038;-79
2023/07/25 19:05:34;;;;;;;4.65;2.38;;;;;;;-144.32;100.00;68061.97;10279335;28;20081;-80
2023/07/25 19:11:30;;;;;;;3.65;2.72;;;;;;;-144.32;100.00;68061.97;10298289;28;20049;-79
2023/07/25 19:17:28;;;;;;;5.25;2.90;;;;;;;-144.32;100.00;68061.97;10301827;28;20458;-80
2023/07/25 19:23:22;;;;;;;3.03;2.63;;;;;;;-144.32;100.00;68061.97;10288793;28;20047;-80
2023/07/25 19:29:18;;;;;;;2.70;2.35;;;;;;;-144.32;100.00;68061.97;10298011;28;20557;-81
2023/07/25 19:35:18;;;;;;;4.05;2.80;;;;;;;-144.32;100.00;68061.97;10295185;28;20050;-77
2023/07/25 19:41:01;;;;;;;2.70;2.40;;;;;;;-144.32;100.00;68061.97;10299129;28;20156;-76
2023/07/25 19:46:57;;;;;;;4.97;2.70;;;;;;;-144.32;100.00;68061.97;10302170;28;20050;-82
2023/07/25 19:52:47;;;;;;;2.78;2.58;;;;;;;-144.32;100.00;68061.97;10296029;28;20038;-79
2023/07/25 19:58:43;;;;;;;3.88;2.47;;;;;;;-144.32;100.00;68061.97;10302395;28;20038;-79
2023/07/25 20:04:42;;;;;;;3.58;2.53;;;;;;;-144.32;100.00;68061.97;10300151;28;20063;-78
2023/07/25 20:10:42;;;;;;;3.25;2.90;;;;;;;-144.32;100.00;68061.97;10308445;28;20540;-80
2023/07/25 20:16:41;;;;;;;3.50;2.20;;;;;;;-144.32;100.00;68061.97;10309711;28;20680;-79
2023/07/25 20:22:42;;;;;;;2.95;2.58;;;;;;;-144.32;100.00;68061.97;10311081;28;20413;-79
2023/07/25 20:28:41;;;;;;;3.53;2.88;;;;;;;-144.32;100.00;68061.97;10301556;28;20138;-76
2023/07/25 20:34:40;;;;;;;3.58;2.70;;;;;;;-144.32;100.00;68061.97;10303435;28;20503;-76
2023/07/25 20:40:39;;;;;;;3.20;2.85;;;;;;;-144.32;100.00;68061.97;10305297;28;20125;-79
2023/07/25 20:46:36;;;;;;;3.30;3.00;;;;;;;-144.32;100.00;68061.97;10307678;28;20549;-77
2023/07/25 20:52:35;;;;;;;3.33;2.78;;;;;;;-144.32;100.00;68061.97;10307779;28;20034;-77
2023/07/25 20:58:32;;;;;;;3.45;2.47;;;;;;;-144.32;100.00;68061.97;10309068;28;20053;-79
2023/07/25 21:04:32;;;;;;;3.45;2.58;;;;;;;-144.32;100.00;68061.97;10287230;28;20069;-79
2023/07/25 21:10:30;;;;;;;3.72;2.30;;;;;;;-144.32;100.00;68061.97;10308557;28;20058;-77
2023/07/25 21:16:30;;;;;;;3.75;2.45;;;;;;;-144.32;100.00;68061.97;10304219;28;20042;-77
2023/07/25 21:22:29;;;;;;;3.33;2.50;;;;;;;-144.32;100.00;68061.97;10301934;28;20042;-78
2023/07/25 21:28:28;;;;;;;2.50;2.03;;;;;;;-144.32;100.00;68061.97;10298920;28;20037;-78
2023/07/25 21:34:27;;;;;;;3.75;2.28;;;;;;;-144.32;100.00;68061.97;10301262;28;20041;-80
2023/07/25 21:40:26;;;;;;;2.85;2.25;;;;;;;-144.32;100.00;68061.97;10305315;28;20084;-77
2023/07/25 21:46:26;;;;;;;2.70;2.50;;;;;;;-144.32;100.00;68061.97;10306190;28;20045;-82
2023/07/25 21:52:25;;;;;;;2.70;2.38;;;;;;;-144.32;100.00;68061.97;10308844;28;20678;-78
2023/07/25 21:58:28;;;;;;;3.47;2.10;;;;;;;-144.32;100.00;68061.97;10291040;28;20069;-82
2023/07/25 22:04:27;;;;;;;3.90;2.58;;;;;;;-144.32;100.00;68061.97;10308220;28;20073;-78
2023/07/25 22:10:26;;;;;;;2.50;2.30;;;;;;;-144.32;100.00;68061.97;10308545;28;20501;-77
2023/07/25 22:16:25;;;;;;;2.70;2.40;;;;;;;-144.32;100.00;68061.97;10307007;28;20070;-78
2023/07/25 22:22:23;;;;;;;4.07;2.78;;;;;;;-144.32;100.00;68061.97;10299749;28;20115;-79
2023/07/25 22:28:20;;;;;;;3.47;2.97;;;;;;;-144.32;100.00;68061.97;10299966;28;20134;-79
2023/07/25 22:34:21;;;;;;;4.25;3.20;;;;;;;-144.32;100.00;68061.97;10300853;28;20465;-76
2023/07/25 22:40:17;;;;;;;3.55;2.95;;;;;;;-144.32;100.00;68061.97;10304549;28;20939;-76
2023/07/25 22:46:18;;;;;;;3.95;3.17;;;;;;;-144.32;100.00;68061.97;10306732;28;20043;-76
2023/07/25 22:52:14;;;;;;;4.22;3.28;;;;;;;-144.32;100.00;68061.97;10286860;28;20101;-77
2023/07/25 22:57:40;;;;;;;4.93;3.38;;;;;;;-144.32;100.00;68061.97;10297814;28;20758;-80
2023/07/25 23:03:03;;;;;;;3.85;3.08;;;;;;;-144.32;100.00;68061.97;10306767;28;20046;-80
2023/07/25 23:08:25;;;;;;;4.18;3.78;;;;;;;-144.32;100.00;68061.97;10299595;28;20181;-79
2023/07/25 23:13:55;;;;;;;6.45;3.60;;;;;;;-144.32;100.00;68061.97;10299404;28;20038;-80
2023/07/25 23:19:22;;;;;;;4.07;3.67;;;;;;;-144.32;100.00;68061.97;10278818;28;20050;-76
2023/07/25 23:24:43;;;;;;;5.22;3.88;;;;;;;-144.32;100.00;68061.97;10293200;28;20132;-79
2023/07/25 23:30:20;;;;;;;6.93;3.90;;;;;;;-144.32;100.00;68061.97;10292906;28;20142;-78
2023/07/25 23:35:35;;;;;;;5.75;3.50;;;;;;;-144.32;100.00;68061.97;10298672;28;20038;-74
2023/07/25 23:41:01;;;;;;;3.95;3.60;;;;;;;-144.32;100.00;68061.97;10301826;28;20042;-77
2023/07/25 23:46:22;;;;;;;5.28;3.90;;;;;;;-144.32;100.00;68061.97;10301671;28;20057;-77
2023/07/25 23:51:30;;;;;;;6.35;3.75;;;;;;;-144.32;100.00;68061.97;10304456;28;20062;-77
2023/07/25 23:56:42;;;;;;;6.65;4.38;;;;;;;-144.32;100.00;68061.97;10301299;28;20050;-77
